createdAt,value
2018-12-29T00:00:49.141Z,22.11
2018-12-29T00:03:52.662Z,22.10
2018-12-29T00:06:58.198Z,22.10
2018-12-29T00:10:02.926Z,22.07
2018-12-29T00:13:06.434Z,22.06
2018-12-29T00:16:09.928Z,22.07
2018-12-29T00:19:14.457Z,22.08
2018-12-29T00:22:17.958Z,22.07
2018-12-29T00:25:21.467Z,22.08
2018-12-29T00:28:24.973Z,22.08
2018-12-29T00:31:28.468Z,22.09
2018-12-29T00:34:31.912Z,22.09
2018-12-29T00:37:35.376Z,22.09
2018-12-29T00:40:38.870Z,22.09
2018-12-29T00:43:42.310Z,22.09
2018-12-29T00:46:45.777Z,22.08
2018-12-29T00:49:49.271Z,22.09
2018-12-29T00:52:52.778Z,22.09
2018-12-29T00:55:56.217Z,22.08
2018-12-29T00:59:00.786Z,22.08
2018-12-29T01:02:04.301Z,22.07
2018-12-29T01:05:07.801Z,22.06
2018-12-29T01:08:12.324Z,22.07
2018-12-29T01:11:16.836Z,22.05
2018-12-29T01:14:21.369Z,22.04
2018-12-29T01:17:24.875Z,22.03
2018-12-29T01:20:29.392Z,22.02
2018-12-29T01:23:32.964Z,22.01
2018-12-29T01:26:36.609Z,22.00
2018-12-29T01:29:40.106Z,21.99
2018-12-29T01:32:43.550Z,21.98
2018-12-29T01:35:47.002Z,21.97
2018-12-29T01:38:50.525Z,21.95
2018-12-29T01:41:53.986Z,21.95
2018-12-29T01:44:57.447Z,21.94
2018-12-29T01:48:00.921Z,21.94
2018-12-29T01:51:04.366Z,21.94
2018-12-29T01:54:08.931Z,21.96
2018-12-29T01:57:12.430Z,21.96
2018-12-29T02:00:17.020Z,21.96
2018-12-29T02:03:20.674Z,21.97
2018-12-29T02:06:25.191Z,21.97
2018-12-29T02:09:28.698Z,21.96
2018-12-29T02:12:32.318Z,21.97
2018-12-29T02:15:35.915Z,21.97
2018-12-29T02:18:39.409Z,21.97
2018-12-29T02:21:42.901Z,21.98
2018-12-29T02:24:46.490Z,21.97
2018-12-29T02:27:50.105Z,21.97
2018-12-29T02:30:53.616Z,21.97
2018-12-29T02:33:57.118Z,21.97
2018-12-29T02:37:00.719Z,21.95
2018-12-29T02:40:04.521Z,21.95
2018-12-29T02:43:07.977Z,21.95
2018-12-29T02:46:11.531Z,21.93
2018-12-29T02:49:15.110Z,21.94
2018-12-29T02:52:18.731Z,21.92
2018-12-29T02:55:22.239Z,21.91
2018-12-29T02:58:25.781Z,21.92
2018-12-29T03:01:29.234Z,21.90
2018-12-29T03:04:34.778Z,21.89
2018-12-29T03:07:38.291Z,21.89
2018-12-29T03:10:41.785Z,21.88
2018-12-29T03:13:45.294Z,21.85
2018-12-29T03:16:48.790Z,21.86
2018-12-29T03:19:52.310Z,21.86
2018-12-29T03:22:55.811Z,21.88
2018-12-29T03:26:00.338Z,21.87
2018-12-29T03:29:03.827Z,21.87
2018-12-29T03:32:07.333Z,21.87
2018-12-29T03:35:10.776Z,21.88
2018-12-29T03:38:14.353Z,21.88
2018-12-29T03:41:17.837Z,21.88
2018-12-29T03:44:21.322Z,21.88
2018-12-29T03:47:25.892Z,21.89
2018-12-29T03:50:29.360Z,21.89
2018-12-29T03:53:33.879Z,21.90
2018-12-29T03:56:37.404Z,21.89
2018-12-29T03:59:40.903Z,21.89
2018-12-29T04:02:44.384Z,21.88
2018-12-29T04:05:47.889Z,21.88
2018-12-29T04:09:27.855Z,21.88
2018-12-29T04:12:34.602Z,21.88
2018-12-29T04:15:38.104Z,21.87
2018-12-29T04:18:42.646Z,21.86
2018-12-29T04:21:46.163Z,21.86
2018-12-29T04:24:49.663Z,21.86
2018-12-29T04:27:53.132Z,21.85
2018-12-29T04:30:56.652Z,21.86
2018-12-29T04:34:00.150Z,21.84
2018-12-29T04:37:05.709Z,21.84
2018-12-29T04:40:09.204Z,21.83
2018-12-29T04:43:12.707Z,21.82
2018-12-29T04:46:16.182Z,21.82
2018-12-29T04:49:19.714Z,21.82
2018-12-29T04:52:23.209Z,21.82
2018-12-29T04:55:26.702Z,21.84
2018-12-29T04:58:30.198Z,21.83
2018-12-29T05:01:33.709Z,21.83
2018-12-29T05:04:38.264Z,21.82
2018-12-29T05:07:41.724Z,21.83
2018-12-29T05:10:46.251Z,21.84
2018-12-29T05:13:49.755Z,21.84
2018-12-29T05:16:53.255Z,21.83
2018-12-29T05:19:56.929Z,21.84
2018-12-29T05:23:01.365Z,21.84
2018-12-29T05:26:05.003Z,21.83
2018-12-29T05:29:08.520Z,21.83
2018-12-29T05:32:11.955Z,21.84
2018-12-29T05:35:15.492Z,21.84
2018-12-29T05:38:20.108Z,21.83
2018-12-29T05:41:23.618Z,21.83
2018-12-29T05:44:27.064Z,21.82
2018-12-29T05:47:30.523Z,21.82
2018-12-29T05:50:34.022Z,21.82
2018-12-29T05:53:38.599Z,21.82
2018-12-29T05:56:42.111Z,21.81
2018-12-29T05:59:45.766Z,21.80
2018-12-29T06:02:49.275Z,21.80
2018-12-29T06:05:52.777Z,21.80
2018-12-29T06:08:57.301Z,21.80
2018-12-29T06:12:00.793Z,21.79
2018-12-29T06:15:04.315Z,21.78
2018-12-29T06:18:07.792Z,21.78
2018-12-29T06:21:11.290Z,21.78
2018-12-29T06:24:14.860Z,21.79
2018-12-29T06:27:18.311Z,21.77
2018-12-29T06:30:21.786Z,21.77
2018-12-29T06:33:25.284Z,21.77
2018-12-29T06:36:28.806Z,21.78
2018-12-29T06:39:32.335Z,21.78
2018-12-29T06:42:36.831Z,21.79
2018-12-29T06:45:40.333Z,21.79
2018-12-29T06:48:43.824Z,21.78
2018-12-29T06:51:47.347Z,21.79
2018-12-29T06:54:50.822Z,21.79
2018-12-29T06:57:54.318Z,21.79
2018-12-29T07:00:57.884Z,21.79
2018-12-29T07:04:01.564Z,21.78
2018-12-29T07:07:05.033Z,21.79
2018-12-29T07:10:08.476Z,21.77
2018-12-29T07:13:11.928Z,21.79
2018-12-29T07:16:15.383Z,21.77
2018-12-29T07:19:19.027Z,21.77
2018-12-29T07:22:22.532Z,21.77
2018-12-29T07:25:28.104Z,21.76
2018-12-29T07:28:32.607Z,21.78
2018-12-29T07:31:36.120Z,21.76
2018-12-29T07:34:39.609Z,21.76
2018-12-29T07:37:43.205Z,21.76
2018-12-29T07:40:46.724Z,21.75
2018-12-29T07:43:50.194Z,21.76
2018-12-29T07:46:53.815Z,21.75
2018-12-29T07:49:59.387Z,21.74
2018-12-29T07:53:02.881Z,21.74
2018-12-29T07:56:06.373Z,21.74
2018-12-29T07:59:09.821Z,21.73
2018-12-29T08:02:13.304Z,21.74
2018-12-29T08:05:16.878Z,21.74
2018-12-29T08:08:20.358Z,21.75
2018-12-29T08:11:23.881Z,21.74
2018-12-29T08:14:27.410Z,21.74
2018-12-29T08:17:30.877Z,21.74
2018-12-29T08:20:34.320Z,21.74
2018-12-29T08:23:37.789Z,21.74
2018-12-29T08:26:41.278Z,21.74
2018-12-29T08:29:44.779Z,21.74
2018-12-29T08:32:48.290Z,21.74
2018-12-29T08:35:51.824Z,21.74
2018-12-29T08:38:55.296Z,21.73
2018-12-29T08:41:58.787Z,21.75
2018-12-29T08:45:02.278Z,21.74
2018-12-29T08:48:05.946Z,21.74
2018-12-29T08:51:11.466Z,21.74
2018-12-29T08:54:14.950Z,21.73
2018-12-29T08:57:18.451Z,21.72
2018-12-29T09:00:21.944Z,21.72
2018-12-29T09:03:26.509Z,21.72
2018-12-29T09:06:32.107Z,21.72
2018-12-29T09:09:35.846Z,21.73
2018-12-29T09:12:39.491Z,21.73
2018-12-29T09:15:43.128Z,21.72
2018-12-29T09:18:49.791Z,21.72
2018-12-29T09:21:53.042Z,21.71
2018-12-29T09:24:56.510Z,21.70
2018-12-29T09:28:00.010Z,21.70
2018-12-29T09:31:04.583Z,21.71
2018-12-29T09:34:09.077Z,21.70
2018-12-29T09:37:12.682Z,21.70
2018-12-29T09:40:16.256Z,21.70
2018-12-29T09:43:19.879Z,21.70
2018-12-29T09:46:23.475Z,21.70
2018-12-29T09:49:26.908Z,21.71
2018-12-29T09:52:30.537Z,21.70
2018-12-29T09:55:34.179Z,21.70
2018-12-29T09:58:38.718Z,21.71
2018-12-29T10:01:42.218Z,21.71
2018-12-29T10:04:45.711Z,21.72
2018-12-29T10:07:49.240Z,21.73
2018-12-29T10:10:52.698Z,21.75
2018-12-29T10:13:57.349Z,21.76
2018-12-29T10:17:01.100Z,21.76
2018-12-29T10:20:04.968Z,21.78
2018-12-29T10:23:08.581Z,21.80
2018-12-29T10:26:12.084Z,21.80
2018-12-29T10:29:15.552Z,21.81
2018-12-29T10:32:18.993Z,21.83
2018-12-29T10:35:22.552Z,21.84
2018-12-29T10:38:26.094Z,21.85
2018-12-29T10:41:30.591Z,21.88
2018-12-29T10:44:34.183Z,21.93
2018-12-29T10:47:37.855Z,22.00
2018-12-29T10:50:41.514Z,22.04
2018-12-29T10:53:45.021Z,22.07
2018-12-29T10:56:48.512Z,22.08
2018-12-29T10:59:54.048Z,22.10
2018-12-29T11:02:57.666Z,22.14
2018-12-29T11:06:01.280Z,22.15
2018-12-29T11:09:06.745Z,22.17
2018-12-29T11:12:10.316Z,22.17
2018-12-29T11:15:13.802Z,22.19
2018-12-29T11:18:17.323Z,22.21
2018-12-29T11:21:20.811Z,22.22
2018-12-29T11:24:24.428Z,22.23
2018-12-29T11:27:28.036Z,22.23
2018-12-29T11:30:31.523Z,22.18
2018-12-29T11:33:37.078Z,22.17
2018-12-29T11:36:41.726Z,22.18
2018-12-29T11:39:45.300Z,22.18
2018-12-29T11:42:48.802Z,22.19
2018-12-29T11:45:52.312Z,22.17
2018-12-29T11:48:56.822Z,22.19
2018-12-29T11:52:00.344Z,22.17
2018-12-29T11:55:03.875Z,22.18
2018-12-29T11:58:07.352Z,22.18
2018-12-29T12:01:10.826Z,22.18
2018-12-29T12:04:14.546Z,22.18
2018-12-29T12:07:18.148Z,22.16
2018-12-29T12:10:21.757Z,22.17
2018-12-29T12:13:26.387Z,22.17
2018-12-29T12:16:29.971Z,22.17
2018-12-29T12:19:33.475Z,22.17
2018-12-29T12:22:37.053Z,22.16
2018-12-29T12:25:40.692Z,22.17
2018-12-29T12:28:44.200Z,22.16
2018-12-29T12:31:47.672Z,22.16
2018-12-29T12:34:51.181Z,22.17
2018-12-29T12:37:54.699Z,22.16
2018-12-29T12:40:58.183Z,22.15
2018-12-29T12:44:01.691Z,22.14
2018-12-29T12:47:05.184Z,22.15
2018-12-29T12:50:08.722Z,22.14
2018-12-29T12:53:13.632Z,22.14
2018-12-29T12:56:17.534Z,22.14
2018-12-29T12:59:21.047Z,22.14
2018-12-29T13:02:24.973Z,22.14
2018-12-29T13:05:28.441Z,22.14
2018-12-29T13:08:34.020Z,22.17
2018-12-29T13:11:38.619Z,22.16
2018-12-29T13:14:42.227Z,22.17
2018-12-29T13:17:45.748Z,22.17
2018-12-29T13:20:51.283Z,22.18
2018-12-29T13:23:54.805Z,22.19
2018-12-29T13:26:58.286Z,22.22
2018-12-29T13:30:02.196Z,22.23
2018-12-29T13:33:05.700Z,22.23
2018-12-29T13:36:09.177Z,22.23
2018-12-29T13:39:12.697Z,22.25
2018-12-29T13:42:16.194Z,22.25
2018-12-29T13:45:20.730Z,22.25
2018-12-29T13:48:24.227Z,22.26
2018-12-29T13:51:27.834Z,22.26
2018-12-29T13:54:31.458Z,22.26
2018-12-29T13:57:36.052Z,22.28
2018-12-29T14:00:41.559Z,22.27
2018-12-29T14:03:47.283Z,22.27
2018-12-29T14:06:50.762Z,22.29
2018-12-29T14:09:54.315Z,22.28
2018-12-29T14:12:57.999Z,22.30
2018-12-29T14:16:01.463Z,22.30
2018-12-29T14:19:05.089Z,22.31
2018-12-29T14:22:08.766Z,22.30
2018-12-29T14:25:12.401Z,22.31
2018-12-29T14:28:15.884Z,22.30
2018-12-29T14:31:19.387Z,22.31
2018-12-29T14:34:22.886Z,22.31
2018-12-29T14:37:26.540Z,22.30
2018-12-29T14:40:29.994Z,22.31
2018-12-29T14:43:33.600Z,22.31
2018-12-29T14:46:37.196Z,22.30
2018-12-29T14:49:40.807Z,22.30
2018-12-29T14:52:44.309Z,22.33
2018-12-29T14:55:47.803Z,22.30
2018-12-29T14:58:51.521Z,22.30
2018-12-29T15:01:55.312Z,22.33
2018-12-29T15:04:58.947Z,22.32
2018-12-29T15:08:08.436Z,22.33
2018-12-29T15:11:12.264Z,22.33
2018-12-29T15:14:15.777Z,22.34
2018-12-29T15:17:19.681Z,22.34
2018-12-29T15:20:24.207Z,22.35
2018-12-29T15:23:28.130Z,22.35
2018-12-29T15:26:31.623Z,22.36
2018-12-29T15:29:38.191Z,22.37
2018-12-29T15:32:43.118Z,22.38
2018-12-29T15:35:47.064Z,22.37
2018-12-29T15:38:51.959Z,22.37
2018-12-29T15:41:56.592Z,22.38
2018-12-29T15:45:00.266Z,22.39
2018-12-29T15:48:03.926Z,22.40
2018-12-29T15:51:09.469Z,22.39
2018-12-29T15:54:19.978Z,22.39
2018-12-29T15:57:23.646Z,22.39
2018-12-29T16:00:27.143Z,22.39
2018-12-29T16:03:30.675Z,22.40
2018-12-29T16:06:34.135Z,22.40
2018-12-29T16:09:37.647Z,22.40
2018-12-29T16:12:41.230Z,22.38
2018-12-29T16:15:46.115Z,22.39
2018-12-29T16:18:49.571Z,22.39
2018-12-29T16:21:54.503Z,22.36
2018-12-29T16:24:58.542Z,22.38
2018-12-29T16:28:02.106Z,22.38
2018-12-29T16:31:06.075Z,22.37
2018-12-29T16:34:10.167Z,22.36
2018-12-29T16:37:13.676Z,22.36
2018-12-29T16:40:17.571Z,22.35
2018-12-29T16:43:21.067Z,22.35
2018-12-29T16:46:24.574Z,22.35
2018-12-29T16:49:29.104Z,22.34
2018-12-29T16:52:32.545Z,22.35
2018-12-29T16:55:36.107Z,22.36
2018-12-29T16:58:40.003Z,22.35
2018-12-29T17:01:43.514Z,22.36
2018-12-29T17:04:47.004Z,22.35
2018-12-29T17:07:50.501Z,22.35
2018-12-29T17:10:54.019Z,22.35
2018-12-29T17:13:57.502Z,22.34
2018-12-29T17:17:03.054Z,22.35
2018-12-29T17:20:07.988Z,22.34
2018-12-29T17:23:12.557Z,22.34
2018-12-29T17:26:18.466Z,22.33
2018-12-29T17:29:21.975Z,22.32
2018-12-29T17:32:25.475Z,22.32
2018-12-29T17:35:29.997Z,22.31
2018-12-29T17:38:33.495Z,22.30
2018-12-29T17:41:37.417Z,22.27
2018-12-29T17:44:40.948Z,22.27
2018-12-29T17:47:44.429Z,22.27
2018-12-29T17:50:47.910Z,22.26
2018-12-29T17:53:51.750Z,22.26
2018-12-29T17:56:55.539Z,22.25
2018-12-29T17:59:59.038Z,22.24
2018-12-29T18:03:02.551Z,22.24
2018-12-29T18:06:06.002Z,22.23
2018-12-29T18:09:10.548Z,22.23
2018-12-29T18:12:14.062Z,22.21
2018-12-29T18:15:17.875Z,22.20
2018-12-29T18:18:21.685Z,22.21
2018-12-29T18:21:25.213Z,22.20
2018-12-29T18:24:28.694Z,22.22
2018-12-29T18:27:32.151Z,22.21
2018-12-29T18:30:35.675Z,22.21
2018-12-29T18:33:39.192Z,22.21
2018-12-29T18:36:42.682Z,22.23
2018-12-29T18:39:46.117Z,22.22
2018-12-29T18:42:49.647Z,22.23
2018-12-29T18:45:53.091Z,22.22
2018-12-29T18:48:56.524Z,22.22
2018-12-29T18:52:01.014Z,22.22
2018-12-29T18:55:04.704Z,22.22
2018-12-29T18:58:08.160Z,22.22
2018-12-29T19:01:12.136Z,22.22
2018-12-29T19:04:16.650Z,22.22
2018-12-29T19:07:20.097Z,22.23
2018-12-29T19:10:23.605Z,22.23
2018-12-29T19:13:27.039Z,22.21
2018-12-29T19:16:30.760Z,22.21
2018-12-29T19:19:34.249Z,22.21
2018-12-29T19:22:37.762Z,22.19
2018-12-29T19:25:41.410Z,22.19
2018-12-29T19:28:45.271Z,22.19
2018-12-29T19:31:49.114Z,22.19
2018-12-29T19:34:53.032Z,22.18
2018-12-29T19:37:56.662Z,22.18
2018-12-29T19:41:00.106Z,22.17
2018-12-29T19:44:04.001Z,22.17
2018-12-29T19:47:07.867Z,22.16
2018-12-29T19:50:12.653Z,22.15
2018-12-29T19:53:16.145Z,22.15
2018-12-29T19:56:19.589Z,22.14
2018-12-29T19:59:23.132Z,22.14
2018-12-29T20:02:27.682Z,22.13
2018-12-29T20:05:31.388Z,22.13
2018-12-29T20:08:35.986Z,22.13
2018-12-29T20:11:39.620Z,22.14
2018-12-29T20:14:43.114Z,22.15
2018-12-29T20:17:46.613Z,22.15
2018-12-29T20:20:50.116Z,22.15
2018-12-29T20:23:56.683Z,22.16
2018-12-29T20:27:00.150Z,22.16
2018-12-29T20:30:04.477Z,22.16
2018-12-29T20:33:08.029Z,22.16
2018-12-29T20:36:11.513Z,22.15
2018-12-29T20:39:14.983Z,22.16
2018-12-29T20:42:18.467Z,22.17
2018-12-29T20:45:22.116Z,22.17
2018-12-29T20:48:25.735Z,22.18
2018-12-29T20:51:35.070Z,22.17
2018-12-29T20:54:38.513Z,22.17
2018-12-29T20:57:41.981Z,22.17
2018-12-29T21:00:45.476Z,22.16
2018-12-29T21:03:48.961Z,22.16
2018-12-29T21:06:52.884Z,22.17
2018-12-29T21:09:58.428Z,22.17
2018-12-29T21:13:01.867Z,22.15
2018-12-29T21:16:05.439Z,22.16
2018-12-29T21:19:08.931Z,22.16
2018-12-29T21:22:12.408Z,22.16
2018-12-29T21:25:15.936Z,22.18
2018-12-29T21:28:19.427Z,22.18
2018-12-29T21:31:22.940Z,22.18
2018-12-29T21:34:26.422Z,22.18
2018-12-29T21:37:29.965Z,22.19
2018-12-29T21:40:33.378Z,22.20
2018-12-29T21:43:36.852Z,22.20
2018-12-29T21:46:40.758Z,22.20
2018-12-29T21:49:44.241Z,22.21
2018-12-29T21:52:47.855Z,22.22
2018-12-29T21:55:51.291Z,22.22
2018-12-29T21:58:54.790Z,22.22
2018-12-29T22:01:58.278Z,22.24
2018-12-29T22:05:01.807Z,22.23
2018-12-29T22:08:06.382Z,22.25
2018-12-29T22:11:09.971Z,22.23
2018-12-29T22:14:13.491Z,22.23
2018-12-29T22:17:16.986Z,22.23
2018-12-29T22:20:20.482Z,22.22
2018-12-29T22:23:24.039Z,22.22
2018-12-29T22:26:34.962Z,22.19
2018-12-29T22:29:38.477Z,22.20
2018-12-29T22:32:41.972Z,22.20
2018-12-29T22:35:46.508Z,22.20
2018-12-29T22:38:52.044Z,22.19
2018-12-29T22:41:56.563Z,22.18
2018-12-29T22:45:00.157Z,22.18
2018-12-29T22:48:03.772Z,22.16
2018-12-29T22:51:11.375Z,22.16
2018-12-29T22:54:16.932Z,22.14
2018-12-29T22:57:20.448Z,22.14
2018-12-29T23:00:39.653Z,22.13
2018-12-29T23:03:44.207Z,22.12
2018-12-29T23:06:48.741Z,22.12
2018-12-29T23:09:52.937Z,22.10
2018-12-29T23:12:56.561Z,22.09
2018-12-29T23:16:00.043Z,22.09
2018-12-29T23:19:03.577Z,22.08
2018-12-29T23:22:07.055Z,22.08
2018-12-29T23:25:10.583Z,22.08
2018-12-29T23:28:14.479Z,22.07
2018-12-29T23:31:18.995Z,22.05
2018-12-29T23:34:22.521Z,22.06
2018-12-29T23:37:26.017Z,22.05
2018-12-29T23:40:30.958Z,22.05
2018-12-29T23:43:34.486Z,22.04
2018-12-29T23:46:37.942Z,22.02
2018-12-29T23:49:42.467Z,22.03
2018-12-29T23:52:46.415Z,22.01
2018-12-29T23:55:50.293Z,22.01
2018-12-29T23:58:53.798Z,22.01
